Main page
METAR-TAF:

METAR-TAF

Airports :

Verona Villafranca Airport

Verona, Italy

latitude: 45-23N, longitude: 010-52E, elevation: 67 m

Current weather observation

The report was made 33 minutes ago, at 06:50 UTC
Wind 2 kt from variable directions
Temperature -1°C
Humidity 80%
Pressure 1019 hPa
Visibility: 8000 m
Broken clouds at a height of 5000 ft

METAR: LIPX 160650Z VRB02KT 8000 BKN050 M01/M04 Q1019

Time: 08:23 (07:23 UTC)

Forecast

The report was made 2 hours and 23 minutes ago, at 05:00 UTC
Forecast valid from 16 at 06 UTC to 16 at 15 UTC
Wind 5 kt from variable directions
Visibility: 7000 m
Broken clouds at a height of 6000 ft

TAF: LIPX 160500Z 1606/1615 VRB05KT 7000 BKN060

Weather observations and forecasts of more than 4000 airports (METAR and TAF reports).

The available stations are represented by yellow and red dots on the map.

Hover mouse over dot to see the name of the station.

Then click to see weather observations and forecasts.

To change the map : click on the green buttons with a black cross to zoom in, on the green button with a dash to zoom out, or on the green arrows for adjacent maps.


METAR-TAF: